• Join FlightAware (Why Join?)
  • Login
  • US Flag 
01:44PM EST


 

Airport Tracker/Info


-or-


 

Live Flight TrackerFlight Track Log ✈ N960DL ✈ 26-Apr-2013 ✈ KATL - MYNN / NAS

Flight Track Log - Related Links

Times and Time Zones

All times are in EDT time to prevent confusion due to time zone crossing. See the N960DL flight status page for this flight to view local times or setup timezone preferences in your user account.

Time Position Orientation Groundspeed Altitude Reporting Facility
EDT Latitude Longitude Course Direction KTS MPH feet Rate Location/Type
10:21AM 33.6333 -84.3833 145° Southeast 179 206 2,700  Level Atlanta TRACON
10:22AM 33.6167 -84.3167 107° East 236 272 4,200 1,920 Climbing Atlanta TRACON
10:23AM 33.3573 -84.2405 140° Southeast  Level FlightAware Approximate
10:23AM 33.5500 -84.2833 157° South 300 345 6,400  Level Atlanta TRACON
10:24AM 33.2589 -84.1420 140° Southeast  Level FlightAware Approximate
10:24AM 33.4667 -84.2833 180° South 300 345 9,000  Level Atlanta TRACON
10:25AM 33.1605 -84.0437 140° Southeast  Level FlightAware Approximate
10:25AM 33.3453 -84.2278 159° South 317 365 10,900  Level Atlanta Center
10:26AM 33.0653 -83.9516 145° Southeast  Level FlightAware Approximate
10:26AM 33.2597 -84.1456 141° Southeast 368 423 12,800  Level Atlanta Center
10:27AM 33.1681 -84.0561 141° Southeast 418 481 14,500 2,040 Climbing Atlanta Center
10:28AM 33.0617 -83.9544 141° Southeast 435 501 16,900 2,100 Climbing Atlanta Center
10:29AM 32.9592 -83.8706 146° Southeast 446 513 18,700 1,740 Climbing Atlanta Center
10:30AM 32.8525 -83.7792 144° Southeast 460 529 20,400 1,620 Climbing Atlanta Center
10:31AM 32.7439 -83.6906 146° Southeast 473 544 22,000 1,500 Climbing Atlanta Center
10:32AM 32.6392 -83.5922 142° Southeast 473 544 23,400 1,440 Climbing Atlanta Center
10:33AM 32.5344 -83.4869 140° Southeast 483 556 24,900 1,560 Climbing Atlanta Center
10:34AM 32.4275 -83.3842 141° Southeast 494 568 26,600 1,260 Climbing Atlanta Center
10:36AM 32.2497 -83.2044 139° Southeast 493 567 28,400 1,020 Climbing Jacksonville Center
10:37AM 32.1433 -83.1011 141° Southeast 493 567 29,500 1,200 Climbing Jacksonville Center
10:38AM 32.0350 -82.9906 139° Southeast 498 573 30,800 960 Climbing Jacksonville Center
10:39AM 31.9286 -82.8878 141° Southeast 498 573 31,500 600 Climbing Jacksonville Center
10:40AM 31.8219 -82.7825 140° Southeast 498 573 32,000 240 Climbing Jacksonville Center
10:41AM 31.7133 -82.6778 141° Southeast 498 573 32,000  Level Jacksonville Center
10:42AM 31.6086 -82.5731 140° Southeast 498 573 32,000  Level Jacksonville Center
10:43AM 31.4978 -82.4711 142° Southeast 503 579 32,000  Level Jacksonville Center
10:44AM 31.3847 -82.3792 145° Southeast 503 579 32,000  Level Jacksonville Center
10:45AM 31.2736 -82.2850 144° Southeast 498 573 32,000  Level Jacksonville Center
10:46AM 31.1603 -82.1933 145° Southeast 498 573 32,000  Level Jacksonville Center
10:47AM 31.0469 -82.0972 144° Southeast 498 573 32,000  Level Jacksonville Center
10:48AM 30.9358 -82.0061 145° Southeast 498 573 32,000  Level Jacksonville Center
10:49AM 30.8222 -81.9128 145° Southeast 498 573 32,000  Level Jacksonville Center
10:50AM 30.7108 -81.8172 144° Southeast 498 573 32,000  Level Jacksonville Center
10:51AM 30.5994 -81.7219 144° Southeast 498 573 32,000  Level Jacksonville Center
10:52AM 30.4858 -81.6294 145° Southeast 498 573 32,000  Level Jacksonville Center
10:53AM 30.3742 -81.5394 145° Southeast 498 573 32,000  Level Jacksonville Center
10:54AM 30.2503 -81.4739 155° Southeast 493 567 32,000  Level Jacksonville Center
10:55AM 30.1244 -81.4278 162° South 482 555 32,000  Level Jacksonville Center
10:56AM 29.9967 -81.3792 162° South 482 555 32,000  Level Jacksonville Center
10:57AM 29.8603 -81.3286 162° South 482 555 32,000  Level Jacksonville Center
10:58AM 29.7383 -81.2564 153° Southeast 482 555 32,000  Level Jacksonville Center
10:59AM 29.6306 -81.1650 144° Southeast 481 554 32,000  Level Jacksonville Center
11:00AM 29.5208 -81.0739 144° Southeast 487 560 32,000  Level Jacksonville Center
11:01AM 29.4214 -80.9900 144° Southeast 495 570 32,000  Level Jacksonville Center
11:02AM 29.3117 -80.8992 144° Southeast 495 570 32,000  Level Jacksonville Center
11:03AM 29.2014 -80.8064 144° Southeast 490 564 32,000  Level Jacksonville Center
11:06AM 28.8650 -80.5322 144° Southeast 497 572 32,000  Level Miami Center
11:07AM 28.7525 -80.4386 144° Southeast 503 579 32,000  Level Miami Center
11:08AM 28.6631 -80.3483 138° Southeast 490 564 32,000  Level Miami Center
11:09AM 28.5611 -80.2458 139° Southeast 485 558 32,000  Level Miami Center
11:10AM 28.4489 -80.1361 139° Southeast 491 565 32,000  Level Miami Center
11:11AM 28.3469 -80.0364 139° Southeast 491 565 32,000  Level Miami Center
11:12AM 28.2447 -79.9347 139° Southeast 491 565 32,000  Level Miami Center
11:13AM 28.1425 -79.8331 139° Southeast 496 571 32,000  Level Miami Center
11:14AM 28.0381 -79.7336 140° Southeast 496 571 32,000  Level Miami Center
11:15AM 27.9356 -79.6325 139° Southeast 491 565 32,000  Level Miami Center
11:16AM 27.8375 -79.5314 138° Southeast 491 565 32,000  Level Miami Center
11:17AM 27.7347 -79.4353 140° Southeast 491 565 32,000  Level Miami Center
11:18AM 27.6444 -79.3464 139° Southeast 486 559 32,000  Level Miami Center
11:19AM 27.5314 -79.2339 139° Southeast 491 565 32,000  Level Miami Center
11:20AM 27.4308 -79.1358 139° Southeast 486 559 32,000  Level Miami Center
11:21AM 27.3300 -79.0381 139° Southeast 486 559 32,000  Level Miami Center
11:22AM 27.2353 -78.9475 140° Southeast 486 559 32,000 -180 Level Miami Center
11:23AM 27.1322 -78.8522 141° Southeast 486 559 31,700 -900 Descending Miami Center
11:24AM 27.0228 -78.7456 139° Southeast 486 559 30,300 -1,620 Descending Miami Center
11:25AM 26.9194 -78.6506 141° Southeast 486 559 28,500 -1,260 Descending Miami Center
11:26AM 26.8369 -78.5725 140° Southeast 486 559 27,800 -780 Descending Miami Center
11:27AM 26.7233 -78.4639 139° Southeast 486 559 27,000 -900 Descending Miami Center
11:28AM 26.6261 -78.3764 141° Southeast 474 545 26,000 -1,260 Descending Miami Center
11:29AM 26.5392 -78.2847 137° Southeast 447 514 24,500 -1,020 Descending Miami Center
11:30AM 26.4522 -78.2072 141° Southeast 426 490 24,000 -300 Descending Miami Center
11:31AM 26.3653 -78.1228 139° Southeast 420 483 24,000  Level Miami Center
11:32AM 26.2761 -78.0406 140° Southeast 415 478 24,000 -480 Level Miami Center
11:33AM 26.1889 -77.9611 141° Southeast 415 478 23,100 -1,380 Descending Miami Center
11:34AM 26.1039 -77.8839 141° Southeast 409 471 21,300 -1,920 Descending Miami Center
11:35AM 26.0228 -77.8069 140° Southeast 399 459 19,300 -1,740 Descending Miami Center
11:36AM 25.9439 -77.7300 139° Southeast 388 447 17,900 -1,560 Descending Miami Center
11:37AM 25.8650 -77.6578 141° Southeast 378 435 16,200 -1,800 Descending Miami Center
11:38AM 25.7922 -77.5881 139° Southeast 365 420 14,300 -1,620 Descending Miami Center
11:39AM 25.7214 -77.5208 139° Southeast 352 405 13,000 -1,140 Descending Miami Center
11:40AM 25.6422 -77.4833 157° South 333 383 12,100 -1,200 Descending Miami Center
11:41AM 25.5544 -77.4783 177° South 307 353 10,600 -1,500 Descending Miami Center
11:43AM 25.3707 -77.4667 180° South  Level FlightAware Approximate
11:50AM 25.0333 -77.4500 170° South  Level FlightAware Approximate
11:51AM 25.0390 -77.4662 170° South  Level Estimated
11:52AM 25.0390 -77.4662 170° South  Level Estimated